CO88 weather

Kusa Helistop
Denver, Colorado, United States

Public forecast

Using degrees Fahrenheit for public forecast. Weather courtesy of forecast.io.

METAR (pilot weather report)

Closest report is Buckley Air Force Base, 10.7 nm (19.9 km) E. Retrieved 2019/04/21 05:58 UTC (9 minutes ago):

KBKF 210558Z 25008KT 10SM FEW120 SCT170 BKN200 14/M01 A2979 RMK AO2A SLP017 T01411011 10220 20141 56006

TAF (pilot weather forecast)

Closest forecast is Buckley Air Force Base, 10.7 nm (19.9 km) E. Retrieved 2019/04/21 01:07 UTC (5 hours ago):

TAF KBKF 210102Z 2101/2207 15025G35KT 9999 VCSH FEW080 BKN100 QNH2994INS BECMG 2102/2103 28009KT 8000 -SHRA BKN080 QNH2931INS BECMG 2110/2111 29009KT 9999 NSW FEW100 QNH2988INS BECMG 2121/2122 26009KT 9999 VCSH BKN080 QNH2993INS BECMG 2205/2206 34012G18KT 8000 -SHRA BR BKN005 OVC020 QNH3000INS TX26/2121Z TN05/2112Z